Time;durP1;ratioP1;P1;durP2;ratioP2;P2;SDS_P1;SDS_P2;PMS_P1;PMS_P2;Temp;Humidity;BMP_temperature;BMP_pressure;BME280_temperature;BME280_humidity;BME280_pressure;Samples;Min_cycle;Max_cycle;Signal;HPM_P1;HPM_P2
2022/05/29 00:02:10;;;;;;;1.87;1.17;;;19.40;50.90;;;;;;5038579;28;20180;-92
2022/05/29 00:04:37;;;;;;;1.30;1.10;;;19.40;51.00;;;;;;5026484;28;20184;-93
2022/05/29 00:07:04;;;;;;;1.87;1.40;;;19.30;50.90;;;;;;5019188;28;20282;-93
2022/05/29 00:09:39;;;;;;;1.43;1.20;;;19.30;50.90;;;;;;5032791;28;20173;-93
2022/05/29 00:12:07;;;;;;;1.53;1.10;;;19.30;50.90;;;;;;5037427;28;20203;-92
2022/05/29 00:14:38;;;;;;;1.47;1.17;;;19.30;51.00;;;;;;5026895;28;20172;-93
2022/05/29 00:17:05;;;;;;;1.60;1.10;;;19.30;51.00;;;;;;5033265;28;20578;-92
2022/05/29 00:19:30;;;;;;;1.63;1.13;;;19.30;51.00;;;;;;5031540;28;20178;-93
2022/05/29 00:21:56;;;;;;;1.20;1.10;;;19.30;51.00;;;;;;5027367;28;20188;-93
2022/05/29 00:24:23;;;;;;;1.40;1.10;;;19.30;51.00;;;;;;5029069;28;20218;-93
2022/05/29 00:26:49;;;;;;;2.63;1.20;;;19.20;51.00;;;;;;5033397;28;20197;-93
2022/05/29 00:32:49;;;;;;;1.83;1.00;;;19.20;51.00;;;;;;5046379;28;20244;-93
2022/05/29 00:35:15;;;;;;;1.10;1.00;;;19.20;51.00;;;;;;5033340;28;20177;-93
2022/05/29 00:37:41;;;;;;;2.13;1.07;;;19.20;51.10;;;;;;5026030;28;20226;-93
2022/05/29 00:40:28;;;;;;;1.63;1.00;;;19.10;51.00;;;;;;5022273;28;20263;-92
2022/05/29 00:42:53;;;;;;;1.40;0.97;;;19.10;51.10;;;;;;5022877;28;20373;-93
2022/05/29 00:45:21;;;;;;;1.67;1.10;;;19.10;51.10;;;;;;5046232;28;20177;-93
2022/05/29 00:51:12;;;;;;;1.40;1.00;;;19.10;51.10;;;;;;5045927;28;20211;-92
2022/05/29 00:53:39;;;;;;;1.10;1.00;;;19.10;51.10;;;;;;5033412;28;20540;-93
2022/05/29 00:56:12;;;;;;;1.23;1.00;;;19.00;51.10;;;;;;5017198;28;20314;-92
2022/05/29 00:58:38;;;;;;;1.23;1.03;;;19.00;51.10;;;;;;5022549;28;20174;-93
2022/05/29 01:01:07;;;;;;;1.00;0.90;;;19.00;51.10;;;;;;5031642;28;20239;-92
2022/05/29 01:03:55;;;;;;;1.73;1.30;;;19.00;51.20;;;;;;5030901;28;20174;-93
2022/05/29 01:06:21;;;;;;;1.23;1.10;;;19.00;51.10;;;;;;5028433;28;20339;-93
2022/05/29 01:08:48;;;;;;;1.10;1.00;;;19.00;51.20;;;;;;5034612;28;20505;-93
2022/05/29 01:11:30;;;;;;;1.70;1.10;;;19.00;51.20;;;;;;5033404;28;20172;-93
2022/05/29 01:14:13;;;;;;;1.00;0.90;;;19.00;51.20;;;;;;5032039;28;20180;-92
2022/05/29 01:17:24;;;;;;;1.47;1.13;;;18.90;51.10;;;;;;5030502;28;20195;-93
2022/05/29 01:20:04;;;;;;;1.10;1.00;;;18.90;51.20;;;;;;5016966;28;20188;-93
2022/05/29 01:22:40;;;;;;;1.50;1.00;;;18.90;51.20;;;;;;5033841;28;20484;-93
2022/05/29 01:25:29;;;;;;;1.07;0.97;;;18.90;51.20;;;;;;5035083;28;20169;-93
2022/05/29 01:28:29;;;;;;;1.10;1.00;;;18.90;51.20;;;;;;5032872;28;20300;-92
2022/05/29 01:31:12;;;;;;;1.27;1.10;;;18.90;51.20;;;;;;5028930;28;20200;-93
2022/05/29 01:33:47;;;;;;;1.40;0.90;;;18.90;51.20;;;;;;5038314;28;20173;-92
2022/05/29 01:36:24;;;;;;;1.10;0.90;;;18.90;51.20;;;;;;5040192;28;20176;-93
2022/05/29 01:39:04;;;;;;;1.47;1.00;;;18.80;51.20;;;;;;5039451;28;20549;-93
2022/05/29 01:41:39;;;;;;;2.40;1.07;;;18.80;51.20;;;;;;5040009;28;20760;-93
2022/05/29 01:44:49;;;;;;;1.50;1.10;;;18.80;51.20;;;;;;5041261;28;20180;-92
2022/05/29 01:47:24;;;;;;;1.30;1.10;;;18.80;51.30;;;;;;5033351;28;20212;-93
2022/05/29 01:49:53;;;;;;;1.13;1.00;;;18.80;51.30;;;;;;5042609;28;20176;-93
2022/05/29 01:52:35;;;;;;;1.53;1.17;;;18.80;51.30;;;;;;5040536;28;20172;-93
2022/05/29 01:55:15;;;;;;;1.10;0.97;;;18.70;51.20;;;;;;5040528;28;20172;-93
2022/05/29 01:57:44;;;;;;;2.80;1.00;;;18.70;51.20;;;;;;5040061;28;20172;-93
2022/05/29 02:00:19;;;;;;;1.40;0.90;;;18.70;51.20;;;;;;5036828;28;20177;-92
2022/05/29 02:03:11;;;;;;;1.53;1.10;;;18.70;51.30;;;;;;5037825;28;20470;-93
2022/05/29 02:05:47;;;;;;;1.50;1.20;;;18.70;51.30;;;;;;5037997;28;20177;-93
2022/05/29 02:08:24;;;;;;;1.23;1.00;;;18.70;51.30;;;;;;5040658;28;20204;-93
2022/05/29 02:10:55;;;;;;;1.23;1.10;;;18.70;51.30;;;;;;5020526;28;20230;-93
2022/05/29 02:13:32;;;;;;;1.10;1.00;;;18.60;51.30;;;;;;5039866;28;20173;-92
2022/05/29 02:16:09;;;;;;;1.30;1.00;;;18.60;51.30;;;;;;5040742;28;20443;-93
2022/05/29 02:19:11;;;;;;;1.20;1.10;;;18.60;51.30;;;;;;5031604;28;20176;-93
2022/05/29 02:21:51;;;;;;;1.77;1.10;;;18.60;51.30;;;;;;5048202;28;20187;-93
2022/05/29 02:24:22;;;;;;;1.20;1.00;;;18.60;51.30;;;;;;5032521;28;20172;-93
2022/05/29 02:27:14;;;;;;;1.60;1.10;;;18.60;51.30;;;;;;5031207;28;20467;-93
2022/05/29 02:29:40;;;;;;;1.43;1.07;;;18.50;51.30;;;;;;5027937;28;20181;-93
2022/05/29 02:32:34;;;;;;;1.23;1.00;;;18.50;51.30;;;;;;5037867;28;20174;-93
2022/05/29 02:35:17;;;;;;;1.50;0.90;;;18.50;51.30;;;;;;5034142;28;20168;-93
2022/05/29 02:38:06;;;;;;;1.83;1.10;;;18.50;51.40;;;;;;5029912;28;20187;-93
2022/05/29 02:40:52;;;;;;;1.00;0.90;;;18.50;51.40;;;;;;5034537;28;20196;-93
2022/05/29 02:43:37;;;;;;;2.00;1.00;;;18.50;51.40;;;;;;5033239;28;20176;-93
2022/05/29 02:46:37;;;;;;;1.13;1.00;;;18.50;51.40;;;;;;5032195;28;20172;-92
2022/05/29 02:49:17;;;;;;;1.00;0.90;;;18.40;51.30;;;;;;5016631;28;20191;-93
2022/05/29 02:51:51;;;;;;;0.90;0.80;;;18.40;51.40;;;;;;5032377;28;20177;-93
2022/05/29 02:54:31;;;;;;;1.33;1.03;;;18.40;51.40;;;;;;5053482;28;20253;-93
2022/05/29 02:56:59;;;;;;;2.83;1.03;;;18.40;51.40;;;;;;5017141;28;20550;-93
2022/05/29 02:59:42;;;;;;;3.00;1.13;;;18.40;51.40;;;;;;5024310;28;20429;-93
2022/05/29 03:02:17;;;;;;;0.90;0.90;;;18.40;51.40;;;;;;5034729;28;20168;-93
2022/05/29 03:05:17;;;;;;;1.13;0.87;;;18.40;51.40;;;;;;5036411;28;20167;-93
2022/05/29 03:08:04;;;;;;;1.33;1.00;;;18.30;51.40;;;;;;5034395;28;20458;-93
2022/05/29 03:10:37;;;;;;;1.30;0.97;;;18.30;51.40;;;;;;5040792;28;20170;-93
2022/05/29 03:13:33;;;;;;;1.47;1.10;;;18.30;51.40;;;;;;5023273;28;20276;-93
2022/05/29 03:16:21;;;;;;;0.80;0.77;;;18.30;51.40;;;;;;5028917;28;20327;-93
2022/05/29 03:18:56;;;;;;;1.30;1.00;;;18.30;51.40;;;;;;5028367;28;20407;-93
2022/05/29 03:21:51;;;;;;;0.90;0.77;;;18.30;51.40;;;;;;5028170;28;20194;-93
2022/05/29 03:24:58;;;;;;;1.97;0.93;;;18.30;51.40;;;;;;5030484;28;20184;-93
2022/05/29 03:27:31;;;;;;;1.13;0.90;;;18.30;51.40;;;;;;4977928;28;20311;-93
2022/05/29 03:30:02;;;;;;;1.10;1.00;;;18.20;51.40;;;;;;4967760;28;20271;-93
2022/05/29 03:33:16;;;;;;;1.17;1.00;;;18.20;51.40;;;;;;4972494;28;20567;-93
2022/05/29 03:39:03;;;;;;;1.00;0.90;;;18.20;51.40;;;;;;4987972;28;20182;-93
2022/05/29 03:47:27;;;;;;;1.30;1.00;;;18.20;51.40;;;;;;5050272;28;20233;-93
2022/05/29 03:49:53;;;;;;;1.50;1.00;;;18.20;51.40;;;;;;5018511;28;20181;-93
2022/05/29 03:52:18;;;;;;;1.30;0.80;;;18.20;51.40;;;;;;5027225;28;20203;-93
2022/05/29 03:54:44;;;;;;;1.37;1.07;;;18.20;51.40;;;;;;5036029;28;20205;-93
2022/05/29 03:57:10;;;;;;;1.07;0.90;;;18.20;51.30;;;;;;5027273;28;20600;-93
2022/05/29 03:59:36;;;;;;;1.33;1.00;;;18.20;51.30;;;;;;5027912;28;20181;-93
2022/05/29 04:02:01;;;;;;;0.87;0.83;;;18.20;51.30;;;;;;5029622;28;20176;-92
2022/05/29 04:04:27;;;;;;;1.30;1.10;;;18.20;51.30;;;;;;5027966;28;20684;-93
2022/05/29 04:06:53;;;;;;;1.30;0.93;;;18.20;51.30;;;;;;5030667;28;20208;-93
2022/05/29 04:12:04;;;;;;;1.10;1.00;;;18.10;51.30;;;;;;5037406;28;20412;-93
2022/05/29 04:14:58;;;;;;;1.20;1.10;;;18.20;51.30;;;;;;5046254;28;20200;-93
2022/05/29 04:17:28;;;;;;;1.03;0.80;;;18.20;51.30;;;;;;5044489;28;20180;-93
2022/05/29 04:19:53;;;;;;;0.77;0.73;;;18.20;51.30;;;;;;5009327;28;20184;-93
2022/05/29 04:22:22;;;;;;;0.97;0.87;;;18.10;51.20;;;;;;5032226;28;20193;-93
2022/05/29 04:24:48;;;;;;;0.97;0.87;;;18.10;51.20;;;;;;5019038;28;20180;-93
2022/05/29 04:27:16;;;;;;;1.07;0.80;;;18.10;51.20;;;;;;5034916;28;20294;-93
2022/05/29 04:29:42;;;;;;;1.87;0.80;;;18.10;51.20;;;;;;5021467;28;20268;-94
2022/05/29 04:34:54;;;;;;;0.90;0.80;;;18.10;51.20;;;;;;5052859;28;20176;-93
2022/05/29 04:37:20;;;;;;;1.00;0.90;;;18.10;51.10;;;;;;5018627;28;20560;-93
2022/05/29 04:39:48;;;;;;;1.77;0.97;;;18.10;51.10;;;;;;5036155;28;20271;-93
2022/05/29 04:45:31;;;;;;;0.80;0.80;;;18.10;51.10;;;;;;5038592;28;20251;-93
2022/05/29 04:48:28;;;;;;;1.83;0.90;;;18.10;51.10;;;;;;5031061;28;20247;-93
2022/05/29 04:54:22;;;;;;;1.13;1.00;;;18.10;51.10;;;;;;5054297;28;20176;-93
2022/05/29 04:56:49;;;;;;;1.37;1.10;;;18.10;51.10;;;;;;5039496;28;20312;-93
2022/05/29 04:59:45;;;;;;;1.10;1.00;;;18.10;51.10;;;;;;5040130;28;20182;-93
2022/05/29 05:05:33;;;;;;;1.20;1.10;;;18.10;51.10;;;;;;5047300;28;20607;-94
2022/05/29 05:07:59;;;;;;;1.27;0.90;;;18.10;51.00;;;;;;5038533;28;20215;-93
2022/05/29 05:10:25;;;;;;;0.67;0.67;;;18.10;51.00;;;;;;5026285;28;20263;-93
2022/05/29 05:16:13;;;;;;;1.20;1.10;;;18.10;50.90;;;;;;5058436;28;20608;-93
2022/05/29 05:25:34;;;;;;;0.77;0.77;;;18.10;50.90;;;;;;5056134;28;20200;-93
2022/05/29 05:27:59;;;;;;;0.80;0.80;;;18.10;50.90;;;;;;5041806;28;20214;-93
2022/05/29 05:30:25;;;;;;;1.10;0.90;;;18.10;50.90;;;;;;5043815;28;20170;-93
2022/05/29 05:36:14;;;;;;;0.83;0.80;;;18.10;50.90;;;;;;5047044;28;20187;-93
2022/05/29 05:38:48;;;;;;;0.83;0.80;;;18.10;50.90;;;;;;5039354;28;20269;-93
2022/05/29 05:41:14;;;;;;;0.70;0.70;;;18.10;50.90;;;;;;5032777;28;20194;-93
2022/05/29 05:43:41;;;;;;;1.13;0.90;;;18.10;50.90;;;;;;5027462;28;20178;-93
2022/05/29 05:46:11;;;;;;;1.00;0.90;;;18.10;50.90;;;;;;5042565;28;20173;-93
2022/05/29 05:48:38;;;;;;;1.00;0.90;;;18.10;50.90;;;;;;5041974;28;20490;-93
2022/05/29 05:51:05;;;;;;;0.80;0.80;;;18.10;50.90;;;;;;5038253;28;20194;-94
2022/05/29 05:53:31;;;;;;;0.80;0.80;;;18.10;50.80;;;;;;5031243;28;20187;-93
2022/05/29 06:02:26;;;;;;;0.90;0.90;;;18.10;50.80;;;;;;5055666;28;20176;-93
2022/05/29 06:04:52;;;;;;;0.77;0.77;;;18.10;50.80;;;;;;5041674;28;20187;-93
2022/05/29 06:07:18;;;;;;;0.83;0.80;;;18.10;50.80;;;;;;5042019;28;20212;-93
2022/05/29 06:09:44;;;;;;;1.10;0.90;;;18.10;50.80;;;;;;5041109;28;20242;-93
2022/05/29 06:12:22;;;;;;;1.10;1.00;;;18.10;50.70;;;;;;5035264;28;20174;-92
2022/05/29 06:14:48;;;;;;;1.10;1.00;;;18.10;50.70;;;;;;5040578;28;20169;-93
2022/05/29 06:17:15;;;;;;;0.80;0.80;;;18.10;50.70;;;;;;5037521;28;20556;-93
2022/05/29 06:19:41;;;;;;;1.10;1.00;;;18.10;50.70;;;;;;5032808;28;20174;-94
2022/05/29 06:22:08;;;;;;;0.97;0.90;;;18.10;50.70;;;;;;5023551;28;20475;-93
2022/05/29 06:24:34;;;;;;;1.00;0.90;;;18.20;50.70;;;;;;5040385;28;20525;-93
2022/05/29 06:27:00;;;;;;;1.17;1.07;;;18.10;50.60;;;;;;5041522;28;20205;-93
2022/05/29 06:29:26;;;;;;;1.03;0.90;;;18.10;50.60;;;;;;5038338;28;20186;-93
2022/05/29 06:31:55;;;;;;;0.80;0.80;;;18.20;50.60;;;;;;5040318;28;20173;-93
2022/05/29 06:34:21;;;;;;;1.73;1.03;;;18.20;50.60;;;;;;5040299;28;20393;-93
2022/05/29 06:36:47;;;;;;;1.20;1.00;;;18.20;50.50;;;;;;5040713;28;20170;-92
2022/05/29 06:39:13;;;;;;;0.83;0.83;;;18.20;50.50;;;;;;5039095;28;20172;-93
2022/05/29 06:41:39;;;;;;;1.57;0.83;;;18.20;50.40;;;;;;5038974;28;20180;-93
2022/05/29 06:44:07;;;;;;;1.13;1.03;;;18.20;50.40;;;;;;5039231;28;20468;-93
2022/05/29 06:46:33;;;;;;;1.00;0.90;;;18.30;50.40;;;;;;5039076;28;20206;-92
2022/05/29 06:48:59;;;;;;;1.20;0.90;;;18.30;50.40;;;;;;5038743;28;20202;-93
2022/05/29 06:51:25;;;;;;;0.87;0.83;;;18.30;50.40;;;;;;5038711;28;20178;-93
2022/05/29 06:53:54;;;;;;;0.77;0.77;;;18.30;50.40;;;;;;5037945;28;20248;-93
2022/05/29 06:56:21;;;;;;;1.43;0.90;;;18.30;50.40;;;;;;5039505;28;20172;-92
2022/05/29 06:58:47;;;;;;;1.30;1.00;;;18.30;50.40;;;;;;5039940;28;20179;-93
2022/05/29 07:06:59;;;;;;;1.27;0.90;;;18.30;50.30;;;;;;5061623;28;20225;-93
2022/05/29 07:09:36;;;;;;;1.87;0.90;;;18.30;50.30;;;;;;5041019;28;20183;-93
2022/05/29 07:12:26;;;;;;;1.20;1.10;;;18.40;50.20;;;;;;5040009;28;20188;-93
2022/05/29 07:15:06;;;;;;;1.20;1.03;;;18.40;50.10;;;;;;5041483;28;20226;-93
2022/05/29 07:17:32;;;;;;;0.83;0.83;;;18.50;50.00;;;;;;5039805;28;20178;-92
2022/05/29 07:19:58;;;;;;;1.00;0.90;;;18.50;50.00;;;;;;5039353;28;20206;-93
2022/05/29 07:22:26;;;;;;;1.03;0.93;;;18.50;50.00;;;;;;5039294;28;20178;-93
2022/05/29 07:24:53;;;;;;;1.03;0.90;;;18.50;50.00;;;;;;5039095;28;20174;-93
2022/05/29 07:27:19;;;;;;;0.80;0.80;;;18.50;49.90;;;;;;5040296;28;20217;-93
2022/05/29 07:29:44;;;;;;;1.43;1.00;;;18.60;49.90;;;;;;5041830;28;20233;-93
2022/05/29 07:32:11;;;;;;;1.53;1.10;;;19.00;49.40;;;;;;5038929;28;20178;-93
2022/05/29 07:34:37;;;;;;;2.13;0.90;;;19.10;49.20;;;;;;5038517;28;20171;-93
2022/05/29 07:37:05;;;;;;;1.10;1.00;;;19.10;49.10;;;;;;5041201;28;20636;-93
2022/05/29 07:39:38;;;;;;;1.00;0.90;;;19.10;49.20;;;;;;5043080;28;20178;-93
2022/05/29 07:44:50;;;;;;;1.50;1.00;;;19.20;49.10;;;;;;5066322;28;20186;-95
2022/05/29 07:50:00;;;;;;;1.77;1.10;;;19.20;49.20;;;;;;5079531;28;20195;-95
2022/05/29 07:52:26;;;;;;;1.67;1.10;;;19.10;49.40;;;;;;5062230;28;20166;-96
2022/05/29 07:54:52;;;;;;;2.07;1.20;;;19.10;49.50;;;;;;5062202;28;20182;-96
2022/05/29 07:57:27;;;;;;;1.30;1.10;;;19.10;49.60;;;;;;5062298;28;20191;-96
2022/05/29 08:00:50;;;;;;;1.27;1.17;;;19.10;49.70;;;;;;5062168;28;20166;-96
2022/05/29 08:06:38;;;;;;;1.60;1.40;;;19.30;49.60;;;;;;5018766;28;20175;-96
2022/05/29 08:09:04;;;;;;;4.47;1.40;;;19.60;49.20;;;;;;5002132;28;20178;-92
2022/05/29 08:11:30;;;;;;;2.13;1.40;;;19.70;49.10;;;;;;5042531;28;20188;-95
2022/05/29 08:14:34;;;;;;;1.57;1.47;;;19.80;48.80;;;;;;5059769;28;20163;-95
2022/05/29 08:17:15;;;;;;;5.37;1.70;;;20.10;48.60;;;;;;5061636;28;20178;-94
2022/05/29 08:19:41;;;;;;;1.90;1.70;;;20.30;48.40;;;;;;5061479;28;20179;-95
2022/05/29 08:22:07;;;;;;;2.40;1.40;;;20.40;48.20;;;;;;5061629;28;20184;-95
2022/05/29 08:30:53;;;;;;;3.03;1.93;;;19.90;48.90;;;;;;5078787;28;20177;-94
2022/05/29 08:33:39;;;;;;;2.63;1.90;;;19.80;49.20;;;;;;5061598;28;20252;-96
2022/05/29 08:36:13;;;;;;;4.07;1.70;;;19.70;49.40;;;;;;5060932;28;20242;-94
2022/05/29 08:38:51;;;;;;;2.67;1.80;;;19.70;49.50;;;;;;5061522;28;20167;-95
2022/05/29 08:41:41;;;;;;;2.00;1.80;;;19.70;49.70;;;;;;5055374;28;20211;-95
2022/05/29 08:58:14;;;;;;;4.00;2.30;;;19.70;50.00;;;;;;5082499;28;20199;-95
2022/05/29 09:10:53;;;;;;;5.07;2.40;;;19.80;50.50;;;;;;5079070;28;20184;-94
2022/05/29 09:13:40;;;;;;;4.40;2.47;;;20.00;50.20;;;;;;5061574;28;20177;-94
2022/05/29 09:19:08;;;;;;;5.33;3.10;;;20.10;49.90;;;;;;5079675;28;20202;-94
2022/05/29 09:22:12;;;;;;;4.83;2.80;;;20.10;50.10;;;;;;5064060;28;20202;-95
2022/05/29 09:27:53;;;;;;;5.63;2.27;;;20.00;50.30;;;;;;5071585;28;20210;-95
2022/05/29 09:30:19;;;;;;;8.20;2.57;;;20.00;50.30;;;;;;5064325;28;20184;-95
2022/05/29 09:32:58;;;;;;;4.30;2.50;;;19.90;50.30;;;;;;5064557;28;20172;-95
2022/05/29 09:35:26;;;;;;;4.87;2.90;;;19.80;50.30;;;;;;5064318;28;20168;-94
2022/05/29 09:38:13;;;;;;;7.07;2.70;;;19.80;50.50;;;;;;5064123;28;20172;-94
2022/05/29 09:41:18;;;;;;;4.73;2.40;;;19.80;50.50;;;;;;5063662;28;20167;-96
2022/05/29 09:44:09;;;;;;;5.30;2.60;;;19.80;50.80;;;;;;5073932;22;20246;-4
2022/05/29 09:46:40;;;;;;;4.60;2.40;;;19.80;51.00;;;;;;5049738;28;20246;-4
2022/05/29 09:52:11;;;;;;;10.80;2.63;;;19.70;51.30;;;;;;5057536;28;20266;-5
2022/05/29 09:54:55;;;;;;;11.80;2.60;;;19.70;51.30;;;;;;5057533;28;20172;-5
2022/05/29 09:57:32;;;;;;;3.53;2.57;;;19.70;51.30;;;;;;5057501;28;20575;-4
2022/05/29 10:00:08;;;;;;;4.87;2.47;;;19.70;51.30;;;;;;5058203;28;20213;-5
2022/05/29 10:02:39;;;;;;;4.87;2.33;;;19.70;51.30;;;;;;5041005;28;20183;-4
2022/05/29 10:05:39;;;;;;;5.60;2.40;;;19.70;51.30;;;;;;5056947;28;20250;-4
2022/05/29 10:08:38;;;;;;;6.63;2.63;;;19.70;51.40;;;;;;5023257;28;20230;-4
2022/05/29 10:11:27;;;;;;;5.10;2.90;;;19.70;51.40;;;;;;4989309;28;20205;-5
2022/05/29 10:13:53;;;;;;;3.63;2.73;;;19.70;51.40;;;;;;5014854;28;20641;-5
2022/05/29 10:16:38;;;;;;;5.03;2.80;;;19.70;51.40;;;;;;5057470;28;20172;-6
2022/05/29 10:22:37;;;;;;;6.03;2.80;;;19.80;51.30;;;;;;5058038;28;20458;-4
2022/05/29 10:25:20;;;;;;;3.37;2.70;;;19.80;51.40;;;;;;5049293;28;20203;-8
2022/05/29 10:27:48;;;;;;;4.30;2.67;;;19.80;51.20;;;;;;5052872;28;20171;-6
2022/05/29 10:30:58;;;;;;;3.33;2.27;;;19.80;51.20;;;;;;5054208;28;20196;-4
2022/05/29 10:33:27;;;;;;;4.43;2.87;;;19.90;51.20;;;;;;5052665;28;20271;-4
2022/05/29 10:35:58;;;;;;;2.67;2.20;;;19.90;51.10;;;;;;5040273;28;20241;-4
2022/05/29 10:38:29;;;;;;;6.70;2.80;;;19.90;51.10;;;;;;5057218;28;20223;-5
2022/05/29 10:40:58;;;;;;;7.20;2.63;;;19.90;51.00;;;;;;5057322;28;20175;-6
2022/05/29 10:43:41;;;;;;;3.87;2.47;;;19.90;51.00;;;;;;5055902;28;20195;-6
2022/05/29 10:46:21;;;;;;;6.03;2.63;;;19.90;50.90;;;;;;5046829;28;20164;-4
2022/05/29 10:49:08;;;;;;;3.77;2.20;;;20.00;50.90;;;;;;5056052;28;20169;-5
2022/05/29 10:51:46;;;;;;;3.87;2.23;;;20.00;50.80;;;;;;5039667;28;20190;-5
2022/05/29 10:54:40;;;;;;;4.20;2.00;;;20.00;50.80;;;;;;5057497;28;20539;-4
2022/05/29 10:57:21;;;;;;;4.13;2.20;;;20.00;50.90;;;;;;5057227;28;20545;-5
2022/05/29 11:00:07;;;;;;;5.00;2.30;;;19.90;50.90;;;;;;5056867;28;20171;-5
2022/05/29 11:05:45;;;;;;;3.43;2.10;;;19.80;51.00;;;;;;5056022;28;20188;-4
2022/05/29 11:08:33;;;;;;;4.40;2.50;;;19.80;51.00;;;;;;5039740;28;20440;-4
2022/05/29 11:11:17;;;;;;;3.53;2.00;;;19.80;51.50;;;;;;5039187;28;20179;-5
2022/05/29 11:13:59;;;;;;;3.83;2.33;;;19.80;51.10;;;;;;5056530;28;20241;-5
2022/05/29 11:16:31;;;;;;;4.77;2.27;;;19.80;51.20;;;;;;5056062;28;20220;-5
2022/05/29 11:19:09;;;;;;;3.43;2.10;;;19.70;51.20;;;;;;5039668;28;20600;-4
2022/05/29 11:22:11;;;;;;;2.70;2.00;;;19.70;51.20;;;;;;5057158;28;20590;-6
2022/05/29 11:25:18;;;;;;;3.63;2.20;;;19.70;51.30;;;;;;5056579;28;20212;-4
2022/05/29 11:27:59;;;;;;;7.67;2.57;;;19.80;51.30;;;;;;5048427;28;20193;-4
2022/05/29 11:30:53;;;;;;;5.67;2.00;;;19.80;51.30;;;;;;5056744;28;20603;-4
2022/05/29 11:33:34;;;;;;;2.73;1.87;;;19.80;51.20;;;;;;5056659;28;20624;-5
2022/05/29 11:35:59;;;;;;;2.63;2.07;;;19.80;51.30;;;;;;5056738;28;20174;-6
2022/05/29 11:38:49;;;;;;;3.53;1.70;;;19.90;51.40;;;;;;5056707;28;20196;-6
2022/05/29 11:41:27;;;;;;;2.33;1.90;;;19.90;51.30;;;;;;5056663;28;20244;-5
2022/05/29 11:44:01;;;;;;;2.20;1.87;;;19.90;51.30;;;;;;5038811;28;20581;-4
2022/05/29 11:52:22;;;;;;;3.57;1.70;;;19.80;51.50;;;;;;5056930;28;20307;-4
2022/05/29 11:54:57;;;;;;;2.93;1.80;;;19.80;51.50;;;;;;5038286;28;20171;-6
2022/05/29 11:57:31;;;;;;;6.30;1.90;;;19.70;51.60;;;;;;5056443;28;20202;-4
2022/05/29 12:00:09;;;;;;;3.27;1.80;;;19.70;51.60;;;;;;5056177;28;20165;-4
2022/05/29 12:03:21;;;;;;;2.70;1.83;;;19.70;51.70;;;;;;5039306;28;20205;-6
2022/05/29 12:05:51;;;;;;;2.90;1.87;;;19.70;51.70;;;;;;5028760;28;20191;-5
2022/05/29 12:08:27;;;;;;;3.97;1.70;;;19.70;51.80;;;;;;5056536;28;20201;-5
2022/05/29 12:11:21;;;;;;;5.10;1.57;;;19.70;51.80;;;;;;5055838;28;20177;-5
2022/05/29 12:13:57;;;;;;;3.57;1.83;;;19.70;51.80;;;;;;5056220;28;20176;-5
2022/05/29 12:16:31;;;;;;;2.70;1.60;;;19.70;51.80;;;;;;5055665;28;20177;-4
2022/05/29 12:18:59;;;;;;;3.60;1.80;;;19.70;51.90;;;;;;5037113;28;20283;-5
2022/05/29 12:21:42;;;;;;;3.53;1.60;;;19.60;51.80;;;;;;5055189;28;20174;-6
2022/05/29 12:24:11;;;;;;;2.90;1.57;;;19.70;51.90;;;;;;5055523;28;20168;-5
2022/05/29 12:26:54;;;;;;;2.60;1.53;;;19.70;51.90;;;;;;5056251;28;20436;-4
2022/05/29 12:29:29;;;;;;;3.87;2.03;;;19.70;52.00;;;;;;5055860;28;20172;-5
2022/05/29 12:32:01;;;;;;;3.03;1.50;;;19.70;52.00;;;;;;5055610;28;20175;-5
2022/05/29 12:34:32;;;;;;;2.07;1.57;;;19.70;52.10;;;;;;5055469;28;20524;-6
2022/05/29 12:37:28;;;;;;;3.10;1.73;;;19.70;52.10;;;;;;5055547;28;20262;-5
2022/05/29 12:40:15;;;;;;;3.27;1.60;;;19.70;52.20;;;;;;5055743;28;20206;-4
2022/05/29 12:43:03;;;;;;;3.57;1.73;;;19.60;52.20;;;;;;5055186;28;20196;-5
2022/05/29 12:45:36;;;;;;;3.83;1.70;;;19.70;52.30;;;;;;5037877;28;20166;-5
2022/05/29 12:48:27;;;;;;;4.33;1.70;;;19.70;52.30;;;;;;5037836;28;20329;-5
2022/05/29 12:51:32;;;;;;;2.30;1.50;;;19.70;52.40;;;;;;5056234;28;20266;-5
2022/05/29 12:54:10;;;;;;;4.43;1.60;;;19.80;52.40;;;;;;5055156;28;20170;-5
2022/05/29 12:56:38;;;;;;;4.10;1.47;;;19.80;52.50;;;;;;5055118;28;20175;-5
2022/05/29 12:59:35;;;;;;;4.73;1.80;;;19.80;52.50;;;;;;5055289;28;20507;-5
2022/05/29 13:02:28;;;;;;;3.27;1.70;;;19.80;52.50;;;;;;5055567;28;20166;-6
2022/05/29 13:05:31;;;;;;;3.20;1.70;;;19.80;52.50;;;;;;5037728;28;20168;-5
2022/05/29 13:08:18;;;;;;;2.60;1.53;;;19.80;52.50;;;;;;5055254;28;20201;-6
2022/05/29 13:10:50;;;;;;;3.50;1.73;;;19.80;52.60;;;;;;5055888;28;20176;-5
2022/05/29 13:13:38;;;;;;;4.13;1.60;;;19.90;52.60;;;;;;5054925;28;20521;-5
2022/05/29 13:16:24;;;;;;;2.33;1.50;;;19.90;52.60;;;;;;5054113;28;20179;-5
2022/05/29 13:19:14;;;;;;;3.53;1.90;;;19.90;52.70;;;;;;5054696;28;20302;-4
2022/05/29 13:22:08;;;;;;;3.73;1.70;;;19.90;52.70;;;;;;5038230;28;20563;-6
2022/05/29 13:24:46;;;;;;;2.87;1.37;;;20.00;52.70;;;;;;5054710;28;20469;-4
2022/05/29 13:27:13;;;;;;;2.30;1.67;;;20.00;52.70;;;;;;5055362;28;20519;-5
2022/05/29 13:29:48;;;;;;;2.07;1.57;;;20.00;52.80;;;;;;5039683;28;20176;-5
2022/05/29 13:32:14;;;;;;;3.13;1.63;;;20.00;52.80;;;;;;5058074;28;20176;-4
2022/05/29 13:34:43;;;;;;;3.03;1.37;;;20.00;52.90;;;;;;5041590;28;20468;-5
2022/05/29 13:37:40;;;;;;;2.47;1.60;;;20.00;53.00;;;;;;5041221;28;20249;-5
2022/05/29 13:40:09;;;;;;;2.93;1.50;;;20.00;53.10;;;;;;5058672;28;20168;-4
2022/05/29 13:42:45;;;;;;;4.97;1.80;;;19.90;53.20;;;;;;5057888;28;20245;-4
2022/05/29 13:45:19;;;;;;;2.33;1.40;;;19.90;53.30;;;;;;5050934;28;20178;-5
2022/05/29 13:47:56;;;;;;;5.33;1.53;;;19.90;53.30;;;;;;5040128;28;20172;-5
2022/05/29 13:50:27;;;;;;;3.20;1.40;;;19.90;53.40;;;;;;5057820;28;20257;-5
2022/05/29 13:53:01;;;;;;;4.03;1.50;;;19.90;53.50;;;;;;5058189;28;20186;-4
2022/05/29 13:55:57;;;;;;;2.30;1.50;;;19.90;53.60;;;;;;5056704;28;20259;-5
2022/05/29 14:04:22;;;;;;;3.67;1.47;;;20.00;53.90;;;;;;5057714;28;20181;-5
2022/05/29 14:07:12;;;;;;;2.77;1.53;;;20.00;53.90;;;;;;5056701;28;20208;-5
2022/05/29 14:09:58;;;;;;;3.17;1.63;;;20.00;54.10;;;;;;5040161;28;20226;-5
2022/05/29 14:12:24;;;;;;;3.40;1.40;;;19.90;54.10;;;;;;5040689;28;20320;-5
2022/05/29 14:14:54;;;;;;;3.87;1.40;;;20.00;54.20;;;;;;5054320;28;20622;-5
2022/05/29 14:17:41;;;;;;;3.80;1.50;;;19.90;54.30;;;;;;5035003;28;20201;-5
2022/05/29 14:20:37;;;;;;;5.90;1.40;;;20.00;54.40;;;;;;5057639;28;20243;-4
2022/05/29 14:23:23;;;;;;;4.67;1.63;;;19.90;54.40;;;;;;5057253;28;20173;-5
2022/05/29 14:25:59;;;;;;;3.83;1.47;;;20.00;54.40;;;;;;5057615;28;20192;-5
2022/05/29 14:29:05;;;;;;;3.70;1.40;;;20.00;54.50;;;;;;5057412;28;20186;-5
2022/05/29 14:31:45;;;;;;;3.27;1.40;;;20.00;54.50;;;;;;5057304;28;20237;-4
2022/05/29 14:34:29;;;;;;;2.83;1.47;;;20.00;54.60;;;;;;5057579;28;20209;-5
2022/05/29 14:37:31;;;;;;;5.10;1.40;;;20.00;54.60;;;;;;5057011;28;20266;-6
2022/05/29 14:40:08;;;;;;;2.70;1.50;;;20.00;54.50;;;;;;5039758;28;20176;-5
2022/05/29 14:42:43;;;;;;;6.97;1.50;;;20.00;54.50;;;;;;5055640;28;20183;-5
2022/05/29 14:45:30;;;;;;;3.07;1.30;;;20.00;54.50;;;;;;5051810;28;20240;-4
2022/05/29 14:47:58;;;;;;;2.93;1.30;;;20.00;54.40;;;;;;5057961;28;20182;-5
2022/05/29 14:50:35;;;;;;;5.23;1.50;;;20.00;54.40;;;;;;5039681;28;20700;-4
2022/05/29 14:53:07;;;;;;;3.07;1.40;;;20.00;54.60;;;;;;5056284;28;20189;-7
2022/05/29 14:55:56;;;;;;;2.67;1.40;;;20.00;54.60;;;;;;5039445;28;20223;-4
2022/05/29 14:58:27;;;;;;;3.83;1.50;;;20.00;54.60;;;;;;5055133;28;20489;-4
2022/05/29 15:00:55;;;;;;;3.80;1.43;;;20.00;54.50;;;;;;5038975;28;20179;-5
2022/05/29 15:03:27;;;;;;;2.77;1.60;;;20.00;54.50;;;;;;5056813;28;20760;-4
2022/05/29 15:05:58;;;;;;;3.33;1.20;;;20.00;54.50;;;;;;5056921;28;20237;-4
2022/05/29 15:11:42;;;;;;;2.17;1.33;;;20.00;54.60;;;;;;5056802;28;20178;-6
2022/05/29 15:14:10;;;;;;;2.47;1.20;;;20.00;54.60;;;;;;5056685;28;20186;-5
2022/05/29 15:16:39;;;;;;;3.30;1.43;;;20.00;54.60;;;;;;5056471;28;20186;-6
2022/05/29 15:19:16;;;;;;;3.77;1.27;;;20.00;54.60;;;;;;5056495;28;20207;-6
2022/05/29 15:24:30;;;;;;;2.37;1.30;;;20.00;54.60;;;;;;5055747;28;20277;-5
2022/05/29 15:27:05;;;;;;;3.13;1.27;;;20.00;54.60;;;;;;5055539;28;20267;-4
2022/05/29 15:29:36;;;;;;;1.73;1.10;;;20.00;54.50;;;;;;5051988;28;20175;-4
2022/05/29 15:32:39;;;;;;;3.07;1.50;;;20.00;54.60;;;;;;5054020;28;20176;-5
2022/05/29 15:35:39;;;;;;;2.43;1.10;;;20.00;54.70;;;;;;5054207;28;20522;-6
2022/05/29 15:38:32;;;;;;;3.40;1.40;;;20.00;54.70;;;;;;5053132;28;20203;-5
2022/05/29 15:41:39;;;;;;;5.63;1.50;;;20.00;54.80;;;;;;5054701;28;20171;-5
2022/05/29 15:44:13;;;;;;;2.17;1.30;;;20.00;54.80;;;;;;5053512;28;20268;-6
2022/05/29 15:54:06;;;;;;;4.53;1.50;;;20.00;55.00;;;;;;5052924;28;20224;-5
2022/05/29 15:56:43;;;;;;;2.83;1.40;;;20.00;55.00;;;;;;5050367;28;20172;-5
2022/05/29 16:02:18;;;;;;;3.80;1.30;;;19.90;55.20;;;;;;5033312;28;20704;-4